createdAt,value
2022-11-30T00:01:23.627Z,4.74
2022-11-30T00:03:55.073Z,4.76
2022-11-30T00:06:23.621Z,4.73
2022-11-30T00:08:54.058Z,4.61
2022-11-30T00:11:22.559Z,4.66
2022-11-30T00:13:50.569Z,4.62
2022-11-30T00:16:18.094Z,4.68
2022-11-30T00:18:46.471Z,4.59
2022-11-30T00:21:14.913Z,4.65
2022-11-30T00:23:43.570Z,4.64
2022-11-30T00:26:13.274Z,4.66
2022-11-30T00:28:41.245Z,4.63
2022-11-30T00:31:11.939Z,4.60
2022-11-30T00:33:39.806Z,4.65
2022-11-30T00:36:12.028Z,4.67
2022-11-30T00:38:39.454Z,4.59
2022-11-30T00:41:07.785Z,4.70
2022-11-30T00:43:35.143Z,4.62
2022-11-30T00:46:02.400Z,4.57
2022-11-30T00:48:29.815Z,4.63
2022-11-30T00:50:56.979Z,4.55
2022-11-30T00:53:24.438Z,4.63
2022-11-30T00:55:51.698Z,4.54
2022-11-30T00:58:19.746Z,4.49
2022-11-30T01:00:46.984Z,4.45
2022-11-30T01:03:14.782Z,4.54
2022-11-30T01:05:43.343Z,4.54
2022-11-30T01:08:11.422Z,4.59
2022-11-30T01:10:40.181Z,4.55
2022-11-30T01:13:08.109Z,4.55
2022-11-30T01:15:43.666Z,4.62
2022-11-30T01:18:12.525Z,4.55
2022-11-30T01:20:43.340Z,4.64
2022-11-30T01:23:11.334Z,4.54
2022-11-30T01:25:38.915Z,4.55
2022-11-30T01:28:06.286Z,4.55
2022-11-30T01:30:33.705Z,4.60
2022-11-30T01:33:05.043Z,4.63
2022-11-30T01:35:32.315Z,4.60
2022-11-30T01:37:59.522Z,4.62
2022-11-30T01:40:26.913Z,4.56
2022-11-30T01:42:54.806Z,4.60
2022-11-30T01:45:22.107Z,4.55
2022-11-30T01:47:52.996Z,4.52
2022-11-30T01:50:30.473Z,4.53
2022-11-30T01:52:58.326Z,4.35
2022-11-30T01:55:36.338Z,4.39
2022-11-30T01:58:23.718Z,4.55
2022-11-30T02:00:51.315Z,4.58
2022-11-30T02:03:39.991Z,4.54
2022-11-30T02:06:07.571Z,4.51
2022-11-30T02:08:35.176Z,4.51
2022-11-30T02:11:05.645Z,4.48
2022-11-30T02:13:58.682Z,4.52
2022-11-30T02:17:02.160Z,4.59
2022-11-30T02:19:53.420Z,4.60
2022-11-30T02:22:31.674Z,4.58
2022-11-30T02:25:07.665Z,4.59
2022-11-30T02:27:49.750Z,4.41
2022-11-30T02:30:21.658Z,4.34
2022-11-30T02:33:16.997Z,4.26
2022-11-30T02:35:51.634Z,4.37
2022-11-30T02:38:23.055Z,4.30
2022-11-30T02:40:50.433Z,4.35
2022-11-30T02:43:19.310Z,4.31
2022-11-30T02:46:08.091Z,4.27
2022-11-30T02:48:45.749Z,4.27
2022-11-30T02:51:16.051Z,4.23
2022-11-30T02:53:44.030Z,4.28
2022-11-30T02:56:11.238Z,4.26
2022-11-30T02:58:38.465Z,4.37
2022-11-30T03:01:05.781Z,4.33
2022-11-30T03:03:33.017Z,4.28
2022-11-30T03:06:00.308Z,4.21
2022-11-30T03:08:27.509Z,4.23
2022-11-30T03:10:54.673Z,4.20
2022-11-30T03:13:22.015Z,4.34
2022-11-30T03:15:49.427Z,4.26
2022-11-30T03:18:16.683Z,4.23
2022-11-30T03:20:44.210Z,4.20
2022-11-30T03:23:11.439Z,4.20
2022-11-30T03:25:38.748Z,4.20
2022-11-30T03:28:06.207Z,4.23
2022-11-30T03:30:33.479Z,4.27
2022-11-30T03:33:00.739Z,4.24
2022-11-30T03:35:27.915Z,4.24
2022-11-30T03:37:55.103Z,4.21
2022-11-30T03:40:22.278Z,4.22
2022-11-30T03:42:49.428Z,4.19
2022-11-30T03:45:16.714Z,4.26
2022-11-30T03:47:45.575Z,4.23
2022-11-30T03:50:12.738Z,4.25
2022-11-30T03:52:39.970Z,4.26
2022-11-30T03:55:07.726Z,4.30
2022-11-30T03:57:34.923Z,4.20
2022-11-30T04:00:02.139Z,4.19
2022-11-30T04:02:29.357Z,4.29
2022-11-30T04:04:56.577Z,4.31
2022-11-30T04:07:23.962Z,4.28
2022-11-30T04:09:51.158Z,4.31
2022-11-30T04:12:18.402Z,4.15
2022-11-30T04:14:45.807Z,4.10
2022-11-30T04:17:15.306Z,4.14
2022-11-30T04:19:42.555Z,4.13
2022-11-30T04:22:09.794Z,4.13
2022-11-30T04:24:37.022Z,4.17
2022-11-30T04:27:04.284Z,4.18
2022-11-30T04:29:31.483Z,4.13
2022-11-30T04:31:58.725Z,4.14
2022-11-30T04:34:28.433Z,4.24
2022-11-30T04:37:00.112Z,4.20
2022-11-30T04:39:27.737Z,4.10
2022-11-30T04:41:54.945Z,4.16
2022-11-30T04:44:22.246Z,4.11
2022-11-30T04:46:49.446Z,4.04
2022-11-30T04:49:16.661Z,4.07
2022-11-30T04:51:43.901Z,4.07
2022-11-30T04:54:11.131Z,3.99
2022-11-30T04:56:38.303Z,4.02
2022-11-30T04:59:05.493Z,4.17
2022-11-30T05:01:32.744Z,4.12
2022-11-30T05:04:00.316Z,4.03
2022-11-30T05:06:30.926Z,4.03
2022-11-30T05:08:58.132Z,4.02
2022-11-30T05:11:25.319Z,4.06
2022-11-30T05:13:52.502Z,4.02
2022-11-30T05:16:22.550Z,4.16
2022-11-30T05:18:49.743Z,4.14
2022-11-30T05:21:18.137Z,4.09
2022-11-30T05:23:47.073Z,3.97
2022-11-30T05:26:14.700Z,4.06
2022-11-30T05:28:42.075Z,4.00
2022-11-30T05:31:09.353Z,3.93
2022-11-30T05:33:36.551Z,4.01
2022-11-30T05:36:10.198Z,4.05
2022-11-30T05:38:37.977Z,4.01
2022-11-30T05:41:05.213Z,4.03
2022-11-30T05:43:32.381Z,4.09
2022-11-30T05:46:01.034Z,4.08
2022-11-30T05:48:28.290Z,4.11
2022-11-30T05:50:55.837Z,4.10
2022-11-30T05:53:23.216Z,3.95
2022-11-30T05:55:50.394Z,3.98
2022-11-30T05:58:17.626Z,3.97
2022-11-30T06:00:44.910Z,3.89
2022-11-30T06:03:12.168Z,3.94
2022-11-30T06:05:39.686Z,3.91
2022-11-30T06:08:06.929Z,3.96
2022-11-30T06:10:34.128Z,3.85
2022-11-30T06:13:09.826Z,3.88
2022-11-30T06:15:38.142Z,3.97
2022-11-30T06:18:06.185Z,4.03
2022-11-30T06:20:33.788Z,3.95
2022-11-30T06:23:01.050Z,3.91
2022-11-30T06:25:28.504Z,4.07
2022-11-30T06:27:55.787Z,4.05
2022-11-30T06:30:23.184Z,4.09
2022-11-30T06:32:51.466Z,3.98
2022-11-30T06:35:19.064Z,3.96
2022-11-30T06:37:46.437Z,3.96
2022-11-30T06:40:14.251Z,3.95
2022-11-30T06:42:41.713Z,4.01
2022-11-30T06:45:09.303Z,3.99
2022-11-30T06:47:36.748Z,3.96
2022-11-30T06:50:04.831Z,4.00
2022-11-30T06:52:32.381Z,3.99
2022-11-30T06:54:59.651Z,4.03
2022-11-30T06:57:28.290Z,3.92
2022-11-30T06:59:55.932Z,3.89
2022-11-30T07:02:23.461Z,3.83
2022-11-30T07:04:50.908Z,3.94
2022-11-30T07:07:18.282Z,3.96
2022-11-30T07:09:45.533Z,3.97
2022-11-30T07:12:15.988Z,3.96
2022-11-30T07:14:43.233Z,3.96
2022-11-30T07:17:12.853Z,4.01
2022-11-30T07:19:40.110Z,4.00
2022-11-30T07:22:07.315Z,4.00
2022-11-30T07:24:53.070Z,3.96
2022-11-30T07:27:20.430Z,3.94
2022-11-30T07:29:48.875Z,3.85
2022-11-30T07:32:16.081Z,3.87
2022-11-30T07:34:43.607Z,3.91
2022-11-30T07:37:11.379Z,3.92
2022-11-30T07:39:38.550Z,3.89
2022-11-30T07:42:05.757Z,3.94
2022-11-30T07:44:33.038Z,3.95
2022-11-30T07:47:01.045Z,3.95
2022-11-30T07:49:28.373Z,4.02
2022-11-30T07:51:55.558Z,3.95
2022-11-30T07:54:22.818Z,3.92
2022-11-30T07:56:50.160Z,3.90
2022-11-30T07:59:17.801Z,3.94
2022-11-30T08:01:45.157Z,3.90
2022-11-30T08:04:13.964Z,3.96
2022-11-30T08:06:41.402Z,3.85
2022-11-30T08:09:10.872Z,3.83
2022-11-30T08:11:38.110Z,3.83
2022-11-30T08:14:05.534Z,3.85
2022-11-30T08:16:37.887Z,3.91
2022-11-30T08:19:05.268Z,3.97
2022-11-30T08:21:32.481Z,3.92
2022-11-30T08:23:59.918Z,3.96
2022-11-30T08:26:30.124Z,3.94
2022-11-30T08:28:58.738Z,3.99
2022-11-30T08:31:28.733Z,4.04
2022-11-30T08:34:00.989Z,4.09
2022-11-30T08:36:29.698Z,4.04
2022-11-30T08:39:02.282Z,4.11
2022-11-30T08:41:29.602Z,4.01
2022-11-30T08:43:56.809Z,4.02
2022-11-30T08:49:21.529Z,4.07
2022-11-30T08:54:40.076Z,4.11
2022-11-30T08:57:07.252Z,4.10
2022-11-30T08:59:34.440Z,4.12
2022-11-30T09:02:01.677Z,4.22
2022-11-30T09:04:28.839Z,4.29
2022-11-30T09:06:59.024Z,4.24
2022-11-30T09:09:26.482Z,4.26
2022-11-30T09:11:53.761Z,4.32
2022-11-30T09:14:20.989Z,4.29
2022-11-30T09:16:48.190Z,4.31
2022-11-30T09:19:15.363Z,4.35
2022-11-30T09:21:45.416Z,4.42
2022-11-30T09:24:16.928Z,4.43
2022-11-30T09:26:44.089Z,4.52
2022-11-30T09:29:11.274Z,4.51
2022-11-30T09:31:38.462Z,4.46
2022-11-30T09:34:05.635Z,4.62
2022-11-30T09:36:33.998Z,4.68
2022-11-30T09:39:01.331Z,4.59
2022-11-30T09:42:06.995Z,4.73
2022-11-30T09:44:58.523Z,4.75
2022-11-30T09:48:07.942Z,4.79
2022-11-30T09:50:47.358Z,4.85
2022-11-30T09:53:28.907Z,4.83
2022-11-30T09:55:56.964Z,4.89
2022-11-30T09:58:39.705Z,5.07
2022-11-30T10:01:13.538Z,4.94
2022-11-30T10:03:41.847Z,5.12
2022-11-30T10:06:15.411Z,5.16
2022-11-30T10:09:00.956Z,5.28
2022-11-30T10:11:45.284Z,5.30
2022-11-30T10:14:49.622Z,5.34
2022-11-30T10:17:33.045Z,5.44
2022-11-30T10:20:40.878Z,5.36
2022-11-30T10:23:07.934Z,5.25
2022-11-30T10:25:56.111Z,5.32
2022-11-30T10:28:47.727Z,5.37
2022-11-30T10:31:16.932Z,5.42
2022-11-30T10:33:48.235Z,5.38
2022-11-30T10:36:41.983Z,5.46
2022-11-30T10:39:25.422Z,5.51
2022-11-30T10:42:00.332Z,5.40
2022-11-30T10:44:31.368Z,5.55
2022-11-30T10:47:26.103Z,5.54
2022-11-30T10:49:53.691Z,5.64
2022-11-30T10:52:35.868Z,5.59
2022-11-30T10:55:05.091Z,5.46
2022-11-30T10:57:33.405Z,5.46
2022-11-30T11:00:03.776Z,5.58
2022-11-30T11:02:43.469Z,5.68
2022-11-30T11:05:15.351Z,5.65
2022-11-30T11:08:06.465Z,5.74
2022-11-30T11:10:36.830Z,5.74
2022-11-30T11:13:05.223Z,5.68
2022-11-30T11:15:36.279Z,5.84
2022-11-30T11:18:26.180Z,5.68
2022-11-30T11:21:20.913Z,5.84
2022-11-30T11:23:56.065Z,5.95
2022-11-30T11:26:28.624Z,6.00
2022-11-30T11:28:57.321Z,6.09
2022-11-30T11:31:46.120Z,5.93
2022-11-30T11:34:33.582Z,5.94
2022-11-30T11:37:24.276Z,6.01
2022-11-30T11:40:16.255Z,6.01
2022-11-30T11:42:49.196Z,6.02
2022-11-30T11:45:31.246Z,6.00
2022-11-30T11:48:04.226Z,5.93
2022-11-30T11:53:24.895Z,5.81
2022-11-30T11:56:03.415Z,5.93
2022-11-30T11:58:47.815Z,5.96
2022-11-30T12:01:42.656Z,5.91
2022-11-30T12:04:35.203Z,6.04
2022-11-30T12:07:12.544Z,6.13
2022-11-30T12:09:53.363Z,6.05
2022-11-30T12:12:20.616Z,6.16
2022-11-30T12:14:48.145Z,6.13
2022-11-30T12:17:38.366Z,6.06
2022-11-30T12:20:31.098Z,5.91
2022-11-30T12:23:27.489Z,6.03
2022-11-30T12:26:20.531Z,5.97
2022-11-30T12:29:21.461Z,5.98
2022-11-30T12:32:01.590Z,5.93
2022-11-30T12:35:14.614Z,6.02
2022-11-30T12:37:50.564Z,5.92
2022-11-30T12:40:30.365Z,5.86
2022-11-30T12:43:19.328Z,5.93
2022-11-30T12:45:47.197Z,6.06
2022-11-30T12:48:35.815Z,6.11
2022-11-30T12:51:10.406Z,5.94
2022-11-30T12:53:53.306Z,5.98
2022-11-30T12:56:46.188Z,5.95
2022-11-30T12:59:37.068Z,6.02
2022-11-30T13:02:42.006Z,6.17
2022-11-30T13:05:13.243Z,6.14
2022-11-30T13:07:52.778Z,6.18
2022-11-30T13:10:27.262Z,6.14
2022-11-30T13:12:55.988Z,6.05
2022-11-30T13:15:26.031Z,6.22
2022-11-30T13:17:54.283Z,6.25
2022-11-30T13:20:41.984Z,6.35
2022-11-30T13:23:11.210Z,6.36
2022-11-30T13:28:41.729Z,6.13
2022-11-30T13:31:22.491Z,6.10
2022-11-30T13:33:56.022Z,6.02
2022-11-30T13:36:39.986Z,6.06
2022-11-30T13:39:23.300Z,6.02
2022-11-30T13:42:10.479Z,5.96
2022-11-30T13:44:42.598Z,5.99
2022-11-30T13:47:30.049Z,5.88
2022-11-30T13:49:59.824Z,5.85
2022-11-30T13:52:58.504Z,5.87
2022-11-30T13:55:56.392Z,5.76
2022-11-30T13:58:24.463Z,5.61
2022-11-30T14:01:26.926Z,5.54
2022-11-30T14:04:26.796Z,5.30
2022-11-30T14:06:56.353Z,5.17
2022-11-30T14:09:57.403Z,5.08
2022-11-30T14:12:37.492Z,4.90
2022-11-30T14:15:31.752Z,4.77
2022-11-30T14:17:59.509Z,4.60
2022-11-30T14:20:37.513Z,4.54
2022-11-30T14:23:13.539Z,4.41
2022-11-30T14:25:46.492Z,4.32
2022-11-30T14:28:17.486Z,4.27
2022-11-30T14:30:45.066Z,4.14
2022-11-30T14:33:22.730Z,4.11
2022-11-30T14:35:54.517Z,4.01
2022-11-30T14:38:27.388Z,3.90
2022-11-30T14:40:55.045Z,3.87
2022-11-30T14:43:22.320Z,3.79
2022-11-30T14:46:07.257Z,3.58
2022-11-30T14:48:37.461Z,3.33
2022-11-30T14:51:04.693Z,3.37
2022-11-30T14:53:36.968Z,3.22
2022-11-30T14:56:26.039Z,3.06
2022-11-30T14:59:31.068Z,2.96
2022-11-30T15:02:00.605Z,2.89
2022-11-30T15:04:28.668Z,2.86
2022-11-30T15:06:56.601Z,2.89
2022-11-30T15:09:29.231Z,2.87
2022-11-30T15:11:56.783Z,2.75
2022-11-30T15:14:27.215Z,2.63
2022-11-30T15:16:56.997Z,2.63
2022-11-30T15:19:32.473Z,2.48
2022-11-30T15:22:00.018Z,2.26
2022-11-30T15:24:29.386Z,2.08
2022-11-30T15:27:11.325Z,2.08
2022-11-30T15:29:41.324Z,2.01
2022-11-30T15:32:16.943Z,2.02
2022-11-30T15:34:56.856Z,1.99
2022-11-30T15:37:32.770Z,2.01
2022-11-30T15:40:02.063Z,2.01
2022-11-30T15:42:39.998Z,2.04
2022-11-30T15:45:31.645Z,2.02
2022-11-30T15:48:03.448Z,2.05
2022-11-30T15:50:37.667Z,2.07
2022-11-30T15:53:24.549Z,1.94
2022-11-30T15:55:57.560Z,1.90
2022-11-30T15:58:46.543Z,1.85
2022-11-30T16:01:25.034Z,1.88
2022-11-30T16:04:03.883Z,1.88
2022-11-30T16:06:47.881Z,1.99
2022-11-30T16:09:32.273Z,1.93
2022-11-30T16:12:01.071Z,1.82
2022-11-30T16:14:28.317Z,1.77
2022-11-30T16:16:55.782Z,1.86
2022-11-30T16:19:23.205Z,1.81
2022-11-30T16:21:50.842Z,1.80
2022-11-30T16:24:18.211Z,1.85
2022-11-30T16:26:52.892Z,1.84
2022-11-30T16:29:20.686Z,1.82
2022-11-30T16:31:48.064Z,1.68
2022-11-30T16:34:15.379Z,1.61
2022-11-30T16:36:42.874Z,1.44
2022-11-30T16:39:12.288Z,1.45
2022-11-30T16:41:39.618Z,1.41
2022-11-30T16:44:13.468Z,1.42
2022-11-30T16:46:40.625Z,1.39
2022-11-30T16:49:07.805Z,1.30
2022-11-30T16:51:36.029Z,1.23
2022-11-30T16:54:03.836Z,1.22
2022-11-30T16:56:30.996Z,1.24
2022-11-30T16:58:58.172Z,1.26
2022-11-30T17:01:35.474Z,1.34
2022-11-30T17:04:24.221Z,1.29
2022-11-30T17:06:54.703Z,1.38
2022-11-30T17:09:24.582Z,1.30
2022-11-30T17:11:52.089Z,1.16
2022-11-30T17:14:20.906Z,1.22
2022-11-30T17:16:48.991Z,1.22
2022-11-30T17:19:17.391Z,1.28
2022-11-30T17:21:48.465Z,1.30
2022-11-30T17:24:16.288Z,1.36
2022-11-30T17:26:49.776Z,1.47
2022-11-30T17:29:16.978Z,1.42
2022-11-30T17:31:46.247Z,1.41
2022-11-30T17:34:13.454Z,1.23
2022-11-30T17:36:40.653Z,1.28
2022-11-30T17:39:08.701Z,1.31
2022-11-30T17:41:36.119Z,1.34
2022-11-30T17:44:03.459Z,1.41
2022-11-30T17:46:30.649Z,1.44
2022-11-30T17:48:57.845Z,1.30
2022-11-30T17:51:25.381Z,1.28
2022-11-30T17:53:52.624Z,1.35
2022-11-30T17:56:20.227Z,1.35
2022-11-30T17:58:49.476Z,1.29
2022-11-30T18:01:17.639Z,1.19
2022-11-30T18:03:45.544Z,1.12
2022-11-30T18:06:12.979Z,1.32
2022-11-30T18:08:40.242Z,1.20
2022-11-30T18:11:16.768Z,1.22
2022-11-30T18:13:43.937Z,1.26
2022-11-30T18:16:19.488Z,1.29
2022-11-30T18:18:48.515Z,1.36
2022-11-30T18:21:16.877Z,1.30
2022-11-30T18:23:44.301Z,1.29
2022-11-30T18:26:14.259Z,1.35
2022-11-30T18:28:41.788Z,1.37
2022-11-30T18:31:09.314Z,1.35
2022-11-30T18:33:37.391Z,1.32
2022-11-30T18:36:08.818Z,1.47
2022-11-30T18:38:38.245Z,1.59
2022-11-30T18:41:06.585Z,1.55
2022-11-30T18:43:34.828Z,1.48
2022-11-30T18:46:03.844Z,1.44
2022-11-30T18:48:33.166Z,1.53
2022-11-30T18:51:14.261Z,1.65
2022-11-30T18:53:41.849Z,1.57
2022-11-30T18:56:21.900Z,1.66
2022-11-30T18:58:49.356Z,1.50
2022-11-30T19:01:18.924Z,1.46
2022-11-30T19:03:54.220Z,1.59
2022-11-30T19:06:21.738Z,1.62
2022-11-30T19:08:49.120Z,1.56
2022-11-30T19:11:17.362Z,1.56
2022-11-30T19:13:45.203Z,1.64
2022-11-30T19:16:15.697Z,1.59
2022-11-30T19:18:45.021Z,1.65
2022-11-30T19:21:14.909Z,1.49
2022-11-30T19:23:42.159Z,1.52
2022-11-30T19:26:10.263Z,1.63
2022-11-30T19:28:38.390Z,1.44
2022-11-30T19:31:10.957Z,1.38
2022-11-30T19:33:40.201Z,1.28
2022-11-30T19:36:09.039Z,1.24
2022-11-30T19:38:36.282Z,1.31
2022-11-30T19:41:07.793Z,1.30
2022-11-30T19:43:35.486Z,1.26
2022-11-30T19:46:06.281Z,1.33
2022-11-30T19:48:34.193Z,1.24
2022-11-30T19:51:10.943Z,1.26
2022-11-30T19:53:41.546Z,1.28
2022-11-30T19:56:13.853Z,1.30
2022-11-30T19:58:42.351Z,1.30
2022-11-30T20:01:13.414Z,1.25
2022-11-30T20:03:40.817Z,1.24
2022-11-30T20:06:08.134Z,1.33
2022-11-30T20:08:36.915Z,1.40
2022-11-30T20:11:12.301Z,1.41
2022-11-30T20:13:39.547Z,1.39
2022-11-30T20:16:12.213Z,1.35
2022-11-30T20:18:45.697Z,1.26
2022-11-30T20:21:19.169Z,1.26
2022-11-30T20:23:47.361Z,1.26
2022-11-30T20:26:20.542Z,1.26
2022-11-30T20:28:49.130Z,0.98
2022-11-30T20:31:18.385Z,0.98
2022-11-30T20:33:45.893Z,1.08
2022-11-30T20:36:13.783Z,1.10
2022-11-30T20:38:41.458Z,1.13
2022-11-30T20:41:11.949Z,1.17
2022-11-30T20:43:39.324Z,1.12
2022-11-30T20:46:33.935Z,1.12
2022-11-30T20:49:02.107Z,1.21
2022-11-30T20:51:36.300Z,1.16
2022-11-30T20:54:06.466Z,1.12
2022-11-30T20:56:36.556Z,1.08
2022-11-30T20:59:06.312Z,1.00
2022-11-30T21:01:33.827Z,0.96
2022-11-30T21:04:01.343Z,0.88
2022-11-30T21:06:29.919Z,1.03
2022-11-30T21:08:57.617Z,1.17
2022-11-30T21:11:25.008Z,1.16
2022-11-30T21:13:52.686Z,1.17
2022-11-30T21:16:27.120Z,1.19
2022-11-30T21:18:56.441Z,1.14
2022-11-30T21:21:25.978Z,1.21
2022-11-30T21:23:53.508Z,1.10
2022-11-30T21:26:24.286Z,1.09
2022-11-30T21:28:55.789Z,1.08
2022-11-30T21:31:23.905Z,1.07
2022-11-30T21:33:53.660Z,1.16
2022-11-30T21:36:22.067Z,1.21
2022-11-30T21:38:58.168Z,1.14
2022-11-30T21:41:30.346Z,1.08
2022-11-30T21:43:58.658Z,1.09
2022-11-30T21:46:26.195Z,0.94
2022-11-30T21:48:53.453Z,1.10
2022-11-30T21:51:23.459Z,1.08
2022-11-30T21:53:53.107Z,1.10
2022-11-30T21:56:22.729Z,1.13
2022-11-30T21:58:50.513Z,1.05
2022-11-30T22:01:23.125Z,1.01
2022-11-30T22:03:50.832Z,1.12
2022-11-30T22:06:19.468Z,1.21
2022-11-30T22:08:47.292Z,1.12
2022-11-30T22:11:20.201Z,1.22
2022-11-30T22:13:52.526Z,1.25
2022-11-30T22:16:21.165Z,1.20
2022-11-30T22:18:48.701Z,1.02
2022-11-30T22:21:17.956Z,1.01
2022-11-30T22:23:56.344Z,1.05
2022-11-30T22:26:26.083Z,0.93
2022-11-30T22:28:57.976Z,0.88
2022-11-30T22:31:30.399Z,0.91
2022-11-30T22:33:58.357Z,0.99
2022-11-30T22:36:28.143Z,0.97
2022-11-30T22:39:00.345Z,1.11
2022-11-30T22:41:28.315Z,1.19
2022-11-30T22:43:56.168Z,0.96
2022-11-30T22:46:28.570Z,0.96
2022-11-30T22:48:58.151Z,0.96
2022-11-30T22:51:28.120Z,1.10
2022-11-30T22:53:56.125Z,0.98
2022-11-30T22:56:25.500Z,0.95
2022-11-30T22:58:56.186Z,0.88
2022-11-30T23:01:35.083Z,0.93
2022-11-30T23:04:04.997Z,0.88
2022-11-30T23:06:32.707Z,0.92
2022-11-30T23:09:00.707Z,0.98
2022-11-30T23:11:29.500Z,1.06
2022-11-30T23:13:56.906Z,1.02
2022-11-30T23:16:24.393Z,1.10
2022-11-30T23:18:54.602Z,1.20
2022-11-30T23:21:29.737Z,1.19
2022-11-30T23:23:59.198Z,1.15
2022-11-30T23:26:28.642Z,1.17
2022-11-30T23:28:58.879Z,1.16
2022-11-30T23:31:34.027Z,1.16
2022-11-30T23:34:05.370Z,1.14
2022-11-30T23:36:33.613Z,1.06
2022-11-30T23:39:03.731Z,0.97
2022-11-30T23:41:31.151Z,0.96
2022-11-30T23:43:58.567Z,1.05
2022-11-30T23:46:29.065Z,0.85
2022-11-30T23:48:56.644Z,0.74
2022-11-30T23:51:24.610Z,0.66
2022-11-30T23:53:51.891Z,0.76
2022-11-30T23:56:20.298Z,0.88
2022-11-30T23:58:48.209Z,0.81
